sensor_id;sensor_type;location;lat;lon;timestamp;temperature;humidity
75927;DHT22;64605;48.296;16.416;2023-01-29T00:01:33;4.60;66.30
75927;DHT22;64605;48.296;16.416;2023-01-29T00:03:59;4.60;65.90
75927;DHT22;64605;48.296;16.416;2023-01-29T00:06:25;4.60;66.20
75927;DHT22;64605;48.296;16.416;2023-01-29T00:08:50;4.50;66.00
75927;DHT22;64605;48.296;16.416;2023-01-29T00:11:16;4.50;66.30
75927;DHT22;64605;48.296;16.416;2023-01-29T00:13:42;4.40;65.80
75927;DHT22;64605;48.296;16.416;2023-01-29T00:16:08;4.50;65.70
75927;DHT22;64605;48.296;16.416;2023-01-29T00:18:38;4.40;65.90
75927;DHT22;64605;48.296;16.416;2023-01-29T00:21:15;4.40;66.90
75927;DHT22;64605;48.296;16.416;2023-01-29T00:23:41;4.30;66.20
75927;DHT22;64605;48.296;16.416;2023-01-29T00:26:08;4.30;66.50
75927;DHT22;64605;48.296;16.416;2023-01-29T00:28:34;4.40;66.30
75927;DHT22;64605;48.296;16.416;2023-01-29T00:31:11;4.30;66.00
75927;DHT22;64605;48.296;16.416;2023-01-29T00:33:37;4.30;66.00
75927;DHT22;64605;48.296;16.416;2023-01-29T00:36:07;4.30;66.20
75927;DHT22;64605;48.296;16.416;2023-01-29T00:38:34;4.30;66.10
75927;DHT22;64605;48.296;16.416;2023-01-29T00:41:07;4.30;66.30
75927;DHT22;64605;48.296;16.416;2023-01-29T00:43:52;4.30;66.40
75927;DHT22;64605;48.296;16.416;2023-01-29T00:46:36;4.30;65.80
75927;DHT22;64605;48.296;16.416;2023-01-29T00:49:02;4.30;67.30
75927;DHT22;64605;48.296;16.416;2023-01-29T00:51:27;4.30;66.30
75927;DHT22;64605;48.296;16.416;2023-01-29T00:53:55;4.40;66.30
75927;DHT22;64605;48.296;16.416;2023-01-29T00:56:27;4.40;66.50
75927;DHT22;64605;48.296;16.416;2023-01-29T00:58:53;4.40;67.60
75927;DHT22;64605;48.296;16.416;2023-01-29T01:01:19;4.40;66.30
75927;DHT22;64605;48.296;16.416;2023-01-29T01:04:05;4.40;65.90
75927;DHT22;64605;48.296;16.416;2023-01-29T01:06:31;4.40;65.80
75927;DHT22;64605;48.296;16.416;2023-01-29T01:08:56;4.40;66.40
75927;DHT22;64605;48.296;16.416;2023-01-29T01:11:40;4.40;66.40
75927;DHT22;64605;48.296;16.416;2023-01-29T01:14:06;4.40;66.20
75927;DHT22;64605;48.296;16.416;2023-01-29T01:16:32;4.50;66.60
75927;DHT22;64605;48.296;16.416;2023-01-29T01:18:57;4.50;66.60
75927;DHT22;64605;48.296;16.416;2023-01-29T01:21:23;4.50;65.90
75927;DHT22;64605;48.296;16.416;2023-01-29T01:23:49;4.50;65.60
75927;DHT22;64605;48.296;16.416;2023-01-29T01:26:17;4.50;65.70
75927;DHT22;64605;48.296;16.416;2023-01-29T01:28:43;4.40;65.40
75927;DHT22;64605;48.296;16.416;2023-01-29T01:31:12;4.40;65.90
75927;DHT22;64605;48.296;16.416;2023-01-29T01:33:39;4.40;65.60
75927;DHT22;64605;48.296;16.416;2023-01-29T01:36:06;4.40;65.90
75927;DHT22;64605;48.296;16.416;2023-01-29T01:38:36;4.40;65.90
75927;DHT22;64605;48.296;16.416;2023-01-29T01:41:12;4.40;65.40
75927;DHT22;64605;48.296;16.416;2023-01-29T01:43:55;4.30;64.90
75927;DHT22;64605;48.296;16.416;2023-01-29T01:46:23;4.30;65.20
75927;DHT22;64605;48.296;16.416;2023-01-29T01:48:55;4.30;65.40
75927;DHT22;64605;48.296;16.416;2023-01-29T01:51:23;4.30;65.50
75927;DHT22;64605;48.296;16.416;2023-01-29T01:54:02;4.20;65.20
75927;DHT22;64605;48.296;16.416;2023-01-29T01:56:33;4.30;65.30
75927;DHT22;64605;48.296;16.416;2023-01-29T01:59:06;4.30;65.50
75927;DHT22;64605;48.296;16.416;2023-01-29T02:01:34;4.30;65.30
75927;DHT22;64605;48.296;16.416;2023-01-29T02:04:08;4.20;65.00
75927;DHT22;64605;48.296;16.416;2023-01-29T02:06:55;4.20;65.50
75927;DHT22;64605;48.296;16.416;2023-01-29T02:09:51;4.20;65.40
75927;DHT22;64605;48.296;16.416;2023-01-29T02:12:18;4.20;65.10
75927;DHT22;64605;48.296;16.416;2023-01-29T02:14:44;4.20;65.00
75927;DHT22;64605;48.296;16.416;2023-01-29T02:17:15;4.20;65.10
75927;DHT22;64605;48.296;16.416;2023-01-29T02:28:40;4.10;64.90
75927;DHT22;64605;48.296;16.416;2023-01-29T02:31:31;4.10;64.80
75927;DHT22;64605;48.296;16.416;2023-01-29T02:34:27;4.10;64.70
75927;DHT22;64605;48.296;16.416;2023-01-29T02:37:08;4.00;64.90
75927;DHT22;64605;48.296;16.416;2023-01-29T02:39:39;4.10;65.00
75927;DHT22;64605;48.296;16.416;2023-01-29T02:42:20;4.10;65.10
75927;DHT22;64605;48.296;16.416;2023-01-29T02:44:58;4.10;64.80
75927;DHT22;64605;48.296;16.416;2023-01-29T02:47:54;4.10;64.80
75927;DHT22;64605;48.296;16.416;2023-01-29T02:50:44;4.10;64.80
75927;DHT22;64605;48.296;16.416;2023-01-29T02:53:15;4.00;64.20
75927;DHT22;64605;48.296;16.416;2023-01-29T02:55:54;4.10;64.50
75927;DHT22;64605;48.296;16.416;2023-01-29T02:58:30;4.10;64.10
75927;DHT22;64605;48.296;16.416;2023-01-29T03:01:01;4.00;63.60
75927;DHT22;64605;48.296;16.416;2023-01-29T03:03:51;3.90;64.50
75927;DHT22;64605;48.296;16.416;2023-01-29T03:08:55;3.90;64.00
75927;DHT22;64605;48.296;16.416;2023-01-29T03:11:22;4.00;64.00
75927;DHT22;64605;48.296;16.416;2023-01-29T03:14:02;4.00;63.60
75927;DHT22;64605;48.296;16.416;2023-01-29T03:16:39;3.90;63.80
75927;DHT22;64605;48.296;16.416;2023-01-29T03:19:09;3.90;64.00
75927;DHT22;64605;48.296;16.416;2023-01-29T03:21:49;4.00;64.40
75927;DHT22;64605;48.296;16.416;2023-01-29T03:27:17;3.90;63.60
75927;DHT22;64605;48.296;16.416;2023-01-29T03:30:02;3.90;63.60
75927;DHT22;64605;48.296;16.416;2023-01-29T03:32:48;3.90;64.00
75927;DHT22;64605;48.296;16.416;2023-01-29T03:35:20;3.90;63.80
75927;DHT22;64605;48.296;16.416;2023-01-29T03:38:06;3.90;63.80
75927;DHT22;64605;48.296;16.416;2023-01-29T03:40:38;3.80;63.50
75927;DHT22;64605;48.296;16.416;2023-01-29T03:43:18;3.80;63.10
75927;DHT22;64605;48.296;16.416;2023-01-29T03:46:07;3.80;62.90
75927;DHT22;64605;48.296;16.416;2023-01-29T03:48:39;3.60;63.10
75927;DHT22;64605;48.296;16.416;2023-01-29T03:54:42;3.60;63.00
75927;DHT22;64605;48.296;16.416;2023-01-29T03:57:57;3.50;63.30
75927;DHT22;64605;48.296;16.416;2023-01-29T04:00:27;3.60;63.70
75927;DHT22;64605;48.296;16.416;2023-01-29T04:05:30;3.60;63.40
75927;DHT22;64605;48.296;16.416;2023-01-29T04:08:04;3.60;63.20
75927;DHT22;64605;48.296;16.416;2023-01-29T04:10:32;3.60;63.40
75927;DHT22;64605;48.296;16.416;2023-01-29T04:13:07;3.60;63.80
75927;DHT22;64605;48.296;16.416;2023-01-29T04:15:35;3.70;63.50
75927;DHT22;64605;48.296;16.416;2023-01-29T04:18:01;3.70;63.00
75927;DHT22;64605;48.296;16.416;2023-01-29T04:20:28;3.70;63.00
75927;DHT22;64605;48.296;16.416;2023-01-29T04:22:54;3.70;62.80
75927;DHT22;64605;48.296;16.416;2023-01-29T04:25:22;3.70;62.80
75927;DHT22;64605;48.296;16.416;2023-01-29T04:28:19;3.70;63.40
75927;DHT22;64605;48.296;16.416;2023-01-29T04:30:57;3.70;63.20
75927;DHT22;64605;48.296;16.416;2023-01-29T04:33:34;3.70;63.10
75927;DHT22;64605;48.296;16.416;2023-01-29T04:36:16;3.70;63.40
75927;DHT22;64605;48.296;16.416;2023-01-29T04:41:29;3.70;63.10
75927;DHT22;64605;48.296;16.416;2023-01-29T04:46:46;3.70;62.80
75927;DHT22;64605;48.296;16.416;2023-01-29T04:49:45;3.60;62.60
75927;DHT22;64605;48.296;16.416;2023-01-29T04:52:14;3.70;62.80
75927;DHT22;64605;48.296;16.416;2023-01-29T04:57:25;3.60;62.80
75927;DHT22;64605;48.296;16.416;2023-01-29T05:00:02;3.60;62.80
75927;DHT22;64605;48.296;16.416;2023-01-29T05:02:31;3.60;62.40
75927;DHT22;64605;48.296;16.416;2023-01-29T05:04:58;3.60;62.70
75927;DHT22;64605;48.296;16.416;2023-01-29T05:07:26;3.60;62.00
75927;DHT22;64605;48.296;16.416;2023-01-29T05:09:53;3.50;62.50
75927;DHT22;64605;48.296;16.416;2023-01-29T05:12:24;3.50;62.30
75927;DHT22;64605;48.296;16.416;2023-01-29T05:14:52;3.60;61.80
75927;DHT22;64605;48.296;16.416;2023-01-29T05:17:19;3.50;62.10
75927;DHT22;64605;48.296;16.416;2023-01-29T05:19:45;3.50;62.80
75927;DHT22;64605;48.296;16.416;2023-01-29T05:22:14;3.50;61.20
75927;DHT22;64605;48.296;16.416;2023-01-29T05:24:41;3.50;61.70
75927;DHT22;64605;48.296;16.416;2023-01-29T05:27:14;3.50;61.40
75927;DHT22;64605;48.296;16.416;2023-01-29T05:30:00;3.40;60.90
75927;DHT22;64605;48.296;16.416;2023-01-29T05:32:25;3.30;60.50
75927;DHT22;64605;48.296;16.416;2023-01-29T05:34:51;3.20;60.90
75927;DHT22;64605;48.296;16.416;2023-01-29T05:37:17;3.30;61.50
75927;DHT22;64605;48.296;16.416;2023-01-29T05:39:42;3.30;61.20
75927;DHT22;64605;48.296;16.416;2023-01-29T05:42:08;3.30;60.90
75927;DHT22;64605;48.296;16.416;2023-01-29T05:44:33;3.20;61.00
75927;DHT22;64605;48.296;16.416;2023-01-29T05:46:59;3.20;61.30
75927;DHT22;64605;48.296;16.416;2023-01-29T05:49:27;3.20;61.20
75927;DHT22;64605;48.296;16.416;2023-01-29T05:51:53;3.20;61.30
75927;DHT22;64605;48.296;16.416;2023-01-29T05:54:18;3.20;61.50
75927;DHT22;64605;48.296;16.416;2023-01-29T05:56:44;3.20;61.40
75927;DHT22;64605;48.296;16.416;2023-01-29T05:59:10;3.20;61.10
75927;DHT22;64605;48.296;16.416;2023-01-29T06:01:36;3.20;60.50
75927;DHT22;64605;48.296;16.416;2023-01-29T06:04:01;3.10;60.70
75927;DHT22;64605;48.296;16.416;2023-01-29T06:06:27;3.10;61.40
75927;DHT22;64605;48.296;16.416;2023-01-29T06:08:54;3.10;60.30
75927;DHT22;64605;48.296;16.416;2023-01-29T06:11:20;3.10;60.90
75927;DHT22;64605;48.296;16.416;2023-01-29T06:13:46;3.00;60.30
75927;DHT22;64605;48.296;16.416;2023-01-29T06:16:12;3.00;60.40
75927;DHT22;64605;48.296;16.416;2023-01-29T06:18:39;2.90;60.80
75927;DHT22;64605;48.296;16.416;2023-01-29T06:21:08;2.90;60.90
75927;DHT22;64605;48.296;16.416;2023-01-29T06:23:34;2.90;60.30
75927;DHT22;64605;48.296;16.416;2023-01-29T06:26:05;2.90;60.40
75927;DHT22;64605;48.296;16.416;2023-01-29T06:28:31;2.90;61.20
75927;DHT22;64605;48.296;16.416;2023-01-29T06:30:58;2.90;61.00
75927;DHT22;64605;48.296;16.416;2023-01-29T06:33:24;3.00;60.90
75927;DHT22;64605;48.296;16.416;2023-01-29T06:35:57;3.00;60.60
75927;DHT22;64605;48.296;16.416;2023-01-29T06:38:23;3.00;60.70
75927;DHT22;64605;48.296;16.416;2023-01-29T06:40:50;2.90;60.30
75927;DHT22;64605;48.296;16.416;2023-01-29T06:43:15;3.00;61.10
75927;DHT22;64605;48.296;16.416;2023-01-29T06:45:49;3.00;59.90
75927;DHT22;64605;48.296;16.416;2023-01-29T06:48:15;2.90;59.60
75927;DHT22;64605;48.296;16.416;2023-01-29T06:50:40;2.90;59.90
75927;DHT22;64605;48.296;16.416;2023-01-29T06:53:06;2.90;60.60
75927;DHT22;64605;48.296;16.416;2023-01-29T06:55:32;2.90;59.90
75927;DHT22;64605;48.296;16.416;2023-01-29T06:57:57;3.00;60.10
75927;DHT22;64605;48.296;16.416;2023-01-29T07:00:23;3.00;60.00
75927;DHT22;64605;48.296;16.416;2023-01-29T07:02:48;3.00;59.80
75927;DHT22;64605;48.296;16.416;2023-01-29T07:05:14;3.00;60.30
75927;DHT22;64605;48.296;16.416;2023-01-29T07:07:40;3.10;60.40
75927;DHT22;64605;48.296;16.416;2023-01-29T07:10:06;3.20;60.10
75927;DHT22;64605;48.296;16.416;2023-01-29T07:12:32;3.20;59.60
75927;DHT22;64605;48.296;16.416;2023-01-29T07:14:58;3.30;59.80
75927;DHT22;64605;48.296;16.416;2023-01-29T07:17:23;3.30;60.00
75927;DHT22;64605;48.296;16.416;2023-01-29T07:19:49;3.40;59.80
75927;DHT22;64605;48.296;16.416;2023-01-29T07:22:14;3.50;59.40
75927;DHT22;64605;48.296;16.416;2023-01-29T07:24:41;3.50;59.30
75927;DHT22;64605;48.296;16.416;2023-01-29T07:27:07;3.60;59.10
75927;DHT22;64605;48.296;16.416;2023-01-29T07:29:32;3.70;59.40
75927;DHT22;64605;48.296;16.416;2023-01-29T07:31:58;3.80;58.90
75927;DHT22;64605;48.296;16.416;2023-01-29T07:34:24;3.80;57.90
75927;DHT22;64605;48.296;16.416;2023-01-29T07:36:52;3.90;58.00
75927;DHT22;64605;48.296;16.416;2023-01-29T07:39:18;3.90;57.80
75927;DHT22;64605;48.296;16.416;2023-01-29T07:41:43;3.90;57.60
75927;DHT22;64605;48.296;16.416;2023-01-29T07:44:09;4.00;57.30
75927;DHT22;64605;48.296;16.416;2023-01-29T07:46:35;4.00;57.50
75927;DHT22;64605;48.296;16.416;2023-01-29T07:49:00;4.10;57.60
75927;DHT22;64605;48.296;16.416;2023-01-29T07:51:26;4.10;57.30
75927;DHT22;64605;48.296;16.416;2023-01-29T07:53:51;4.20;57.30
75927;DHT22;64605;48.296;16.416;2023-01-29T07:56:17;4.40;57.00
75927;DHT22;64605;48.296;16.416;2023-01-29T07:58:43;4.50;56.60
75927;DHT22;64605;48.296;16.416;2023-01-29T08:01:09;4.60;56.80
75927;DHT22;64605;48.296;16.416;2023-01-29T08:03:35;4.60;55.90
75927;DHT22;64605;48.296;16.416;2023-01-29T08:06:02;4.70;55.20
75927;DHT22;64605;48.296;16.416;2023-01-29T08:08:28;4.80;55.60
75927;DHT22;64605;48.296;16.416;2023-01-29T08:10:53;4.90;55.60
75927;DHT22;64605;48.296;16.416;2023-01-29T08:13:19;4.90;54.40
75927;DHT22;64605;48.296;16.416;2023-01-29T08:15:45;4.90;54.40
75927;DHT22;64605;48.296;16.416;2023-01-29T08:18:11;5.00;53.80
75927;DHT22;64605;48.296;16.416;2023-01-29T08:20:37;4.90;53.80
75927;DHT22;64605;48.296;16.416;2023-01-29T08:23:05;5.00;54.10
75927;DHT22;64605;48.296;16.416;2023-01-29T08:25:32;5.10;53.90
75927;DHT22;64605;48.296;16.416;2023-01-29T08:27:59;5.20;53.60
75927;DHT22;64605;48.296;16.416;2023-01-29T08:30:29;5.20;53.30
75927;DHT22;64605;48.296;16.416;2023-01-29T08:32:56;5.20;53.30
75927;DHT22;64605;48.296;16.416;2023-01-29T08:35:21;5.30;53.50
75927;DHT22;64605;48.296;16.416;2023-01-29T08:37:59;5.30;53.00
75927;DHT22;64605;48.296;16.416;2023-01-29T08:40:26;5.40;52.50
75927;DHT22;64605;48.296;16.416;2023-01-29T08:42:51;5.30;52.10
75927;DHT22;64605;48.296;16.416;2023-01-29T08:45:17;5.30;52.30
75927;DHT22;64605;48.296;16.416;2023-01-29T08:47:47;5.40;52.80
75927;DHT22;64605;48.296;16.416;2023-01-29T08:50:14;5.50;52.10
75927;DHT22;64605;48.296;16.416;2023-01-29T08:52:39;5.60;52.60
75927;DHT22;64605;48.296;16.416;2023-01-29T08:55:05;5.80;52.40
75927;DHT22;64605;48.296;16.416;2023-01-29T08:57:31;6.00;51.40
75927;DHT22;64605;48.296;16.416;2023-01-29T08:59:57;6.10;51.00
75927;DHT22;64605;48.296;16.416;2023-01-29T09:02:22;6.10;51.00
75927;DHT22;64605;48.296;16.416;2023-01-29T09:04:48;6.30;51.10
75927;DHT22;64605;48.296;16.416;2023-01-29T09:07:14;6.40;50.00
75927;DHT22;64605;48.296;16.416;2023-01-29T09:09:39;6.50;50.00
75927;DHT22;64605;48.296;16.416;2023-01-29T09:12:05;6.50;49.20
75927;DHT22;64605;48.296;16.416;2023-01-29T09:14:31;6.50;49.00
75927;DHT22;64605;48.296;16.416;2023-01-29T09:16:57;6.60;49.90
75927;DHT22;64605;48.296;16.416;2023-01-29T09:19:23;6.70;49.30
75927;DHT22;64605;48.296;16.416;2023-01-29T09:21:48;6.80;49.20
75927;DHT22;64605;48.296;16.416;2023-01-29T09:24:14;7.00;49.30
75927;DHT22;64605;48.296;16.416;2023-01-29T09:26:40;7.00;48.90
75927;DHT22;64605;48.296;16.416;2023-01-29T09:29:07;7.10;49.30
75927;DHT22;64605;48.296;16.416;2023-01-29T09:31:33;7.20;49.40
75927;DHT22;64605;48.296;16.416;2023-01-29T09:33:59;7.20;48.00
75927;DHT22;64605;48.296;16.416;2023-01-29T09:36:25;7.20;48.10
75927;DHT22;64605;48.296;16.416;2023-01-29T09:38:50;7.30;48.70
75927;DHT22;64605;48.296;16.416;2023-01-29T09:44:22;7.30;48.60
75927;DHT22;64605;48.296;16.416;2023-01-29T09:46:53;7.40;48.20
75927;DHT22;64605;48.296;16.416;2023-01-29T09:49:25;7.30;48.00
75927;DHT22;64605;48.296;16.416;2023-01-29T09:52:16;7.30;48.40
75927;DHT22;64605;48.296;16.416;2023-01-29T09:57:37;7.30;48.20
75927;DHT22;64605;48.296;16.416;2023-01-29T10:00:04;7.40;48.20
75927;DHT22;64605;48.296;16.416;2023-01-29T10:11:59;7.60;47.70
75927;DHT22;64605;48.296;16.416;2023-01-29T10:14:20;7.60;47.10
75927;DHT22;64605;48.296;16.416;2023-01-29T10:24:59;7.90;47.30
75927;DHT22;64605;48.296;16.416;2023-01-29T10:27:34;7.90;47.40
75927;DHT22;64605;48.296;16.416;2023-01-29T10:30:07;8.00;46.40
75927;DHT22;64605;48.296;16.416;2023-01-29T10:32:36;8.00;45.70
75927;DHT22;64605;48.296;16.416;2023-01-29T10:35:21;8.00;45.90
75927;DHT22;64605;48.296;16.416;2023-01-29T10:37:47;8.20;45.90
75927;DHT22;64605;48.296;16.416;2023-01-29T10:50:52;8.60;45.20
75927;DHT22;64605;48.296;16.416;2023-01-29T10:53:40;8.80;45.50
75927;DHT22;64605;48.296;16.416;2023-01-29T10:56:40;8.90;44.30
75927;DHT22;64605;48.296;16.416;2023-01-29T11:01:58;8.80;44.10
75927;DHT22;64605;48.296;16.416;2023-01-29T11:04:25;8.70;44.40
75927;DHT22;64605;48.296;16.416;2023-01-29T11:06:51;8.70;44.00
75927;DHT22;64605;48.296;16.416;2023-01-29T11:09:48;8.70;44.30
75927;DHT22;64605;48.296;16.416;2023-01-29T11:12:21;8.80;43.70
75927;DHT22;64605;48.296;16.416;2023-01-29T11:15:21;8.80;44.50
75927;DHT22;64605;48.296;16.416;2023-01-29T11:18:02;8.90;44.80
75927;DHT22;64605;48.296;16.416;2023-01-29T11:20:29;8.90;44.30
75927;DHT22;64605;48.296;16.416;2023-01-29T11:22:55;9.00;44.10
75927;DHT22;64605;48.296;16.416;2023-01-29T11:25:22;9.10;44.00
75927;DHT22;64605;48.296;16.416;2023-01-29T11:27:58;9.40;44.00
75927;DHT22;64605;48.296;16.416;2023-01-29T11:30:35;9.90;43.20
75927;DHT22;64605;48.296;16.416;2023-01-29T11:33:18;10.40;42.30
75927;DHT22;64605;48.296;16.416;2023-01-29T11:35:44;10.60;41.60
75927;DHT22;64605;48.296;16.416;2023-01-29T11:38:27;10.60;40.70
75927;DHT22;64605;48.296;16.416;2023-01-29T11:41:13;10.50;40.70
75927;DHT22;64605;48.296;16.416;2023-01-29T11:43:40;10.60;41.00
75927;DHT22;64605;48.296;16.416;2023-01-29T11:46:10;10.70;41.10
75927;DHT22;64605;48.296;16.416;2023-01-29T11:48:46;10.60;40.50
75927;DHT22;64605;48.296;16.416;2023-01-29T11:51:23;10.30;40.00
75927;DHT22;64605;48.296;16.416;2023-01-29T11:53:55;10.00;39.60
75927;DHT22;64605;48.296;16.416;2023-01-29T11:56:38;9.70;40.20
75927;DHT22;64605;48.296;16.416;2023-01-29T11:59:05;9.60;41.40
75927;DHT22;64605;48.296;16.416;2023-01-29T12:01:35;9.40;40.90
75927;DHT22;64605;48.296;16.416;2023-01-29T12:04:17;9.10;41.10
75927;DHT22;64605;48.296;16.416;2023-01-29T12:06:44;8.90;42.20
75927;DHT22;64605;48.296;16.416;2023-01-29T12:09:26;8.90;42.90
75927;DHT22;64605;48.296;16.416;2023-01-29T12:11:53;8.80;43.00
75927;DHT22;64605;48.296;16.416;2023-01-29T12:14:32;8.90;43.20
75927;DHT22;64605;48.296;16.416;2023-01-29T12:17:00;8.90;43.70
75927;DHT22;64605;48.296;16.416;2023-01-29T12:22:20;9.00;42.40
75927;DHT22;64605;48.296;16.416;2023-01-29T12:25:06;9.10;42.60
75927;DHT22;64605;48.296;16.416;2023-01-29T12:30:40;9.10;42.90
75927;DHT22;64605;48.296;16.416;2023-01-29T12:35:47;9.10;42.70
75927;DHT22;64605;48.296;16.416;2023-01-29T12:38:19;9.00;42.20
75927;DHT22;64605;48.296;16.416;2023-01-29T12:40:58;9.00;42.90
75927;DHT22;64605;48.296;16.416;2023-01-29T12:46:06;9.10;42.90
75927;DHT22;64605;48.296;16.416;2023-01-29T12:48:37;9.10;42.90
75927;DHT22;64605;48.296;16.416;2023-01-29T12:51:14;8.80;41.80
75927;DHT22;64605;48.296;16.416;2023-01-29T12:53:50;8.60;43.00
75927;DHT22;64605;48.296;16.416;2023-01-29T12:59:12;8.50;43.50
75927;DHT22;64605;48.296;16.416;2023-01-29T13:01:49;8.40;43.60
75927;DHT22;64605;48.296;16.416;2023-01-29T13:06:49;8.10;43.80
75927;DHT22;64605;48.296;16.416;2023-01-29T13:09:21;7.80;43.90
75927;DHT22;64605;48.296;16.416;2023-01-29T13:12:03;7.50;44.40
75927;DHT22;64605;48.296;16.416;2023-01-29T13:14:58;7.30;44.90
75927;DHT22;64605;48.296;16.416;2023-01-29T13:20:04;7.00;46.10
75927;DHT22;64605;48.296;16.416;2023-01-29T13:22:37;7.00;46.20
75927;DHT22;64605;48.296;16.416;2023-01-29T13:25:04;6.90;46.50
75927;DHT22;64605;48.296;16.416;2023-01-29T13:27:32;6.80;46.60
75927;DHT22;64605;48.296;16.416;2023-01-29T13:29:59;6.80;47.10
75927;DHT22;64605;48.296;16.416;2023-01-29T13:32:27;6.70;47.20
75927;DHT22;64605;48.296;16.416;2023-01-29T13:35:00;6.60;47.40
75927;DHT22;64605;48.296;16.416;2023-01-29T13:37:31;6.60;47.80
75927;DHT22;64605;48.296;16.416;2023-01-29T13:39:58;6.50;49.30
75927;DHT22;64605;48.296;16.416;2023-01-29T13:42:32;6.50;48.20
75927;DHT22;64605;48.296;16.416;2023-01-29T13:45:02;6.50;48.40
75927;DHT22;64605;48.296;16.416;2023-01-29T13:47:33;6.40;48.60
75927;DHT22;64605;48.296;16.416;2023-01-29T13:52:34;6.50;49.10
75927;DHT22;64605;48.296;16.416;2023-01-29T13:55:03;6.60;48.40
75927;DHT22;64605;48.296;16.416;2023-01-29T14:05:50;6.60;49.10
75927;DHT22;64605;48.296;16.416;2023-01-29T14:13:43;6.20;49.40
75927;DHT22;64605;48.296;16.416;2023-01-29T14:18:35;6.00;49.70
75927;DHT22;64605;48.296;16.416;2023-01-29T14:23:50;6.00;50.10
75927;DHT22;64605;48.296;16.416;2023-01-29T14:31:41;6.00;50.20
75927;DHT22;64605;48.296;16.416;2023-01-29T14:34:29;5.90;50.50
75927;DHT22;64605;48.296;16.416;2023-01-29T14:39:53;5.80;50.60
75927;DHT22;64605;48.296;16.416;2023-01-29T14:42:36;5.80;50.90
75927;DHT22;64605;48.296;16.416;2023-01-29T14:53:14;5.60;51.70
75927;DHT22;64605;48.296;16.416;2023-01-29T14:56:02;5.50;51.80
75927;DHT22;64605;48.296;16.416;2023-01-29T14:58:40;5.50;53.60
75927;DHT22;64605;48.296;16.416;2023-01-29T15:01:34;5.50;52.40
75927;DHT22;64605;48.296;16.416;2023-01-29T15:04:12;5.40;52.80
75927;DHT22;64605;48.296;16.416;2023-01-29T15:09:53;5.40;52.50
75927;DHT22;64605;48.296;16.416;2023-01-29T15:12:26;5.30;52.90
75927;DHT22;64605;48.296;16.416;2023-01-29T15:17:39;5.30;53.20
75927;DHT22;64605;48.296;16.416;2023-01-29T15:20:32;5.30;53.50
75927;DHT22;64605;48.296;16.416;2023-01-29T15:22:59;5.20;53.60
75927;DHT22;64605;48.296;16.416;2023-01-29T15:25:27;5.20;53.40
75927;DHT22;64605;48.296;16.416;2023-01-29T15:27:57;5.20;53.50
75927;DHT22;64605;48.296;16.416;2023-01-29T15:30:33;5.20;53.70
75927;DHT22;64605;48.296;16.416;2023-01-29T15:33:00;5.10;54.10
75927;DHT22;64605;48.296;16.416;2023-01-29T15:35:39;5.10;54.30
75927;DHT22;64605;48.296;16.416;2023-01-29T15:38:20;5.10;54.20
75927;DHT22;64605;48.296;16.416;2023-01-29T15:43:23;4.80;54.30
75927;DHT22;64605;48.296;16.416;2023-01-29T15:45:54;4.80;54.50
75927;DHT22;64605;48.296;16.416;2023-01-29T15:48:30;4.70;54.90
75927;DHT22;64605;48.296;16.416;2023-01-29T15:50:56;4.60;54.90
75927;DHT22;64605;48.296;16.416;2023-01-29T15:53:33;4.60;55.70
75927;DHT22;64605;48.296;16.416;2023-01-29T15:56:00;4.40;54.90
75927;DHT22;64605;48.296;16.416;2023-01-29T15:58:30;4.30;55.20
75927;DHT22;64605;48.296;16.416;2023-01-29T16:00:57;4.20;55.60
75927;DHT22;64605;48.296;16.416;2023-01-29T16:03:25;4.10;56.50
75927;DHT22;64605;48.296;16.416;2023-01-29T16:05:53;4.10;57.10
75927;DHT22;64605;48.296;16.416;2023-01-29T16:08:24;4.00;57.30
75927;DHT22;64605;48.296;16.416;2023-01-29T16:10:56;3.90;57.20
75927;DHT22;64605;48.296;16.416;2023-01-29T16:13:31;3.90;57.80
75927;DHT22;64605;48.296;16.416;2023-01-29T16:16:05;3.80;58.40
75927;DHT22;64605;48.296;16.416;2023-01-29T16:18:42;3.70;57.90
75927;DHT22;64605;48.296;16.416;2023-01-29T16:23:58;3.60;58.30
75927;DHT22;64605;48.296;16.416;2023-01-29T16:26:29;3.60;57.80
75927;DHT22;64605;48.296;16.416;2023-01-29T16:28:56;3.60;59.20
75927;DHT22;64605;48.296;16.416;2023-01-29T16:31:28;3.50;58.50
75927;DHT22;64605;48.296;16.416;2023-01-29T16:33:56;3.50;59.00
75927;DHT22;64605;48.296;16.416;2023-01-29T16:36:24;3.50;59.00
75927;DHT22;64605;48.296;16.416;2023-01-29T16:39:01;3.40;58.60
75927;DHT22;64605;48.296;16.416;2023-01-29T16:41:35;3.40;58.40
75927;DHT22;64605;48.296;16.416;2023-01-29T16:44:33;3.30;58.00
75927;DHT22;64605;48.296;16.416;2023-01-29T16:47:09;3.20;58.60
75927;DHT22;64605;48.296;16.416;2023-01-29T16:52:23;3.20;58.90
75927;DHT22;64605;48.296;16.416;2023-01-29T16:54:49;3.20;58.60
75927;DHT22;64605;48.296;16.416;2023-01-29T16:57:25;3.10;59.50
75927;DHT22;64605;48.296;16.416;2023-01-29T16:59:54;3.10;59.30
75927;DHT22;64605;48.296;16.416;2023-01-29T17:04:46;3.00;60.20
75927;DHT22;64605;48.296;16.416;2023-01-29T17:07:15;3.00;60.20
75927;DHT22;64605;48.296;16.416;2023-01-29T17:09:48;3.00;60.90
75927;DHT22;64605;48.296;16.416;2023-01-29T17:12:19;3.00;60.40
75927;DHT22;64605;48.296;16.416;2023-01-29T17:15:29;3.00;60.60
75927;DHT22;64605;48.296;16.416;2023-01-29T17:17:54;2.90;60.20
75927;DHT22;64605;48.296;16.416;2023-01-29T17:20:20;2.80;60.20
75927;DHT22;64605;48.296;16.416;2023-01-29T17:22:46;2.80;60.00
75927;DHT22;64605;48.296;16.416;2023-01-29T17:25:13;2.70;59.70
75927;DHT22;64605;48.296;16.416;2023-01-29T17:27:43;2.60;59.80
75927;DHT22;64605;48.296;16.416;2023-01-29T17:30:17;2.60;60.80
75927;DHT22;64605;48.296;16.416;2023-01-29T17:32:43;2.50;60.30
75927;DHT22;64605;48.296;16.416;2023-01-29T17:35:13;2.50;60.40
75927;DHT22;64605;48.296;16.416;2023-01-29T17:37:39;2.50;61.10
75927;DHT22;64605;48.296;16.416;2023-01-29T17:40:20;2.40;61.20
75927;DHT22;64605;48.296;16.416;2023-01-29T17:42:48;2.40;60.90
75927;DHT22;64605;48.296;16.416;2023-01-29T17:45:14;2.30;61.00
75927;DHT22;64605;48.296;16.416;2023-01-29T17:47:39;2.20;61.20
75927;DHT22;64605;48.296;16.416;2023-01-29T17:50:21;2.20;62.20
75927;DHT22;64605;48.296;16.416;2023-01-29T17:52:47;2.20;62.60
75927;DHT22;64605;48.296;16.416;2023-01-29T17:55:13;2.20;63.10
75927;DHT22;64605;48.296;16.416;2023-01-29T17:57:39;2.10;63.00
75927;DHT22;64605;48.296;16.416;2023-01-29T18:00:30;2.10;62.50
75927;DHT22;64605;48.296;16.416;2023-01-29T18:02:56;2.10;63.10
75927;DHT22;64605;48.296;16.416;2023-01-29T18:05:25;2.00;63.40
75927;DHT22;64605;48.296;16.416;2023-01-29T18:07:50;2.00;63.10
75927;DHT22;64605;48.296;16.416;2023-01-29T18:10:20;1.90;63.40
75927;DHT22;64605;48.296;16.416;2023-01-29T18:12:46;1.90;62.80
75927;DHT22;64605;48.296;16.416;2023-01-29T18:15:12;1.80;63.50